Portada
METAR-TAF:

METAR-TAF

Aeroports :

Florennes, Bèlgica

latitud: 50-14N, longitud: 004-39E, altitud: 279 m

Observació

L'informe es va fer fa 23 minuts, a les 03:25 UTC
Vent 19 kt del Sud amb ràfegues de 30 kt
Temperatura 8°C
Humitat 87%
Pressió 1009 hPa
Visibilitat 10 km o més

METAR: EBFS 080325Z AUTO 19019G30KT 9999 SCT011/// BKN015/// OVC025/// 08/06 Q1009 GRN

Hora: 04:48 (03:48 UTC)

Pronòstic

L'informe es va fer fa 15 hores i 8 minuts, a les 12:40 UTC
Pronòstic vàlid del 06 a les 19 UTC al 07 a les 07 UTC
Vent 18 kt del Sud/Sud-Oest amb ràfegues de 30 kt
Visibilitat: 3500 m
Núvols disperses a una alçada de 400 ft
Cel ennuvolat a una alçada de 800 ft
boirina
Temporalment
l' 06 a les 19 UTC al 07 a les 07 UTC
Vent 12 kt del Sud
Visibilitat: 8000 m
Núvols disperses a una alçada de 800 ft
Cel ennuvolat a una alçada de 1200 ft

TAF: EBFS 061240Z 0619/0707 20018G30KT 3500 -RA/-RADZ BR SCT004 BKN008 TEMPO 0619/0707 18012KT 8000 SCT008 BKN012

Observacions i pronòstics meteorològics de més de 4000 aeroports (METAR i TAF).

Les estacions disponibles són els punts grocs i vermells al mapa.

Posi el ratolí al punt desitjat per veure el nom de l'estació.

Feu clic per veure les observacions i els pronòstics meteorològics.

Per canviar el mapa: feu clic els botons verds amb una creu de color negre per apropar; al botó verd amb un guió per allunyar la imatge; o en les fletxes verdes per a mapes adjacents.


METAR-TAF: